Terminal Aerodrome Forecast
Issued by NWS

Home | Current Version | Previous Version | Text Only | Print | Product List | Glossary On
Versions: 1 2 3 4 5 6 7 8 9 10 11 12 13 14 15 16 17 18 19 20
000
FTUS41 KBGM 012000 AAA
TAFITH
TAF AMD
KITH 012052Z 0121/0218 17012KT 2SM -SN OVC025
      TEMPO 0121/0123 1SM -SN OVC015
     FM012300 18008KT 1SM -SN OVC015
      TEMPO 0123/0203 1/2SM SN OVC008
     FM020400 30008KT P6SM -SHSN SCT008 OVC015
     FM021300 30015G25KT P6SM -SHSN SCT025 BKN035=

USA.gov is the U.S. government's official web portal to all federal, state and local government web resources and services.